sensor_id;sensor_type;location;lat;lon;timestamp;pressure;altitude;pressure_sealevel;temperature;humidity
29315;BME280;16320;53.954;9.506;2023-03-14T00:01:30;98490.25;;;8.87;100.00
29315;BME280;16320;53.954;9.506;2023-03-14T00:04:40;98494.41;;;8.90;100.00
29315;BME280;16320;53.954;9.506;2023-03-14T00:08:08;98496.19;;;8.89;100.00
29315;BME280;16320;53.954;9.506;2023-03-14T00:11:20;98490.63;;;8.83;100.00
29315;BME280;16320;53.954;9.506;2023-03-14T00:14:31;98482.66;;;8.84;100.00
29315;BME280;16320;53.954;9.506;2023-03-14T00:17:43;98472.19;;;8.84;100.00
29315;BME280;16320;53.954;9.506;2023-03-14T00:21:17;98474.56;;;8.87;100.00
29315;BME280;16320;53.954;9.506;2023-03-14T00:24:31;98476.19;;;8.88;100.00
29315;BME280;16320;53.954;9.506;2023-03-14T00:27:41;98472.06;;;8.86;100.00
29315;BME280;16320;53.954;9.506;2023-03-14T00:30:46;98470.50;;;8.83;100.00
29315;BME280;16320;53.954;9.506;2023-03-14T00:33:53;98458.84;;;8.87;100.00
29315;BME280;16320;53.954;9.506;2023-03-14T00:36:57;98461.34;;;8.89;100.00
29315;BME280;16320;53.954;9.506;2023-03-14T00:40:02;98454.69;;;8.85;100.00
29315;BME280;16320;53.954;9.506;2023-03-14T00:43:10;98452.19;;;8.83;100.00
29315;BME280;16320;53.954;9.506;2023-03-14T00:46:15;98448.53;;;8.74;100.00
29315;BME280;16320;53.954;9.506;2023-03-14T00:49:20;98444.25;;;8.73;100.00
29315;BME280;16320;53.954;9.506;2023-03-14T00:52:32;98439.94;;;8.72;100.00
29315;BME280;16320;53.954;9.506;2023-03-14T00:55:48;98433.66;;;8.75;100.00
29315;BME280;16320;53.954;9.506;2023-03-14T00:59:15;98433.97;;;8.82;100.00
29315;BME280;16320;53.954;9.506;2023-03-14T01:02:38;98428.63;;;8.83;100.00
29315;BME280;16320;53.954;9.506;2023-03-14T01:06:33;98429.31;;;8.85;100.00
29315;BME280;16320;53.954;9.506;2023-03-14T01:10:37;98423.34;;;8.94;100.00
29315;BME280;16320;53.954;9.506;2023-03-14T01:18:25;98421.50;;;9.06;100.00
29315;BME280;16320;53.954;9.506;2023-03-14T01:22:26;98439.00;;;9.06;100.00
29315;BME280;16320;53.954;9.506;2023-03-14T01:29:34;98439.47;;;9.11;100.00
29315;BME280;16320;53.954;9.506;2023-03-14T01:40:41;98422.69;;;9.13;100.00
29315;BME280;16320;53.954;9.506;2023-03-14T01:54:11;98407.28;;;9.20;100.00
29315;BME280;16320;53.954;9.506;2023-03-14T02:01:39;98375.59;;;9.23;100.00
29315;BME280;16320;53.954;9.506;2023-03-14T02:06:10;98376.94;;;9.18;100.00
29315;BME280;16320;53.954;9.506;2023-03-14T02:53:09;98321.13;;;9.48;100.00
29315;BME280;16320;53.954;9.506;2023-03-14T03:07:21;98327.63;;;9.53;100.00
29315;BME280;16320;53.954;9.506;2023-03-14T03:12:17;98335.81;;;9.60;100.00
29315;BME280;16320;53.954;9.506;2023-03-14T03:29:37;98381.63;;;9.66;100.00
29315;BME280;16320;53.954;9.506;2023-03-14T03:33:19;98396.78;;;9.62;100.00
29315;BME280;16320;53.954;9.506;2023-03-14T03:36:56;98414.69;;;9.57;100.00
29315;BME280;16320;53.954;9.506;2023-03-14T03:40:02;98410.53;;;9.55;100.00
29315;BME280;16320;53.954;9.506;2023-03-14T03:43:10;98413.53;;;9.50;100.00
29315;BME280;16320;53.954;9.506;2023-03-14T03:46:19;98431.94;;;9.39;100.00
29315;BME280;16320;53.954;9.506;2023-03-14T03:49:30;98437.97;;;9.29;100.00
29315;BME280;16320;53.954;9.506;2023-03-14T03:52:36;98447.72;;;9.27;100.00
29315;BME280;16320;53.954;9.506;2023-03-14T03:55:42;98459.16;;;9.26;100.00
29315;BME280;16320;53.954;9.506;2023-03-14T03:58:47;98466.16;;;9.26;100.00
29315;BME280;16320;53.954;9.506;2023-03-14T04:01:52;98469.31;;;9.20;100.00
29315;BME280;16320;53.954;9.506;2023-03-14T04:04:56;98470.38;;;9.17;100.00
29315;BME280;16320;53.954;9.506;2023-03-14T04:08:02;98471.47;;;9.14;100.00
29315;BME280;16320;53.954;9.506;2023-03-14T04:11:06;98476.38;;;9.08;100.00
29315;BME280;16320;53.954;9.506;2023-03-14T04:14:11;98479.34;;;9.03;100.00
29315;BME280;16320;53.954;9.506;2023-03-14T04:17:15;98477.13;;;8.98;100.00
29315;BME280;16320;53.954;9.506;2023-03-14T04:20:19;98472.63;;;8.89;100.00
29315;BME280;16320;53.954;9.506;2023-03-14T04:23:24;98462.19;;;8.78;100.00
29315;BME280;16320;53.954;9.506;2023-03-14T04:26:29;98461.00;;;8.71;100.00
29315;BME280;16320;53.954;9.506;2023-03-14T04:29:33;98455.31;;;8.66;100.00
29315;BME280;16320;53.954;9.506;2023-03-14T04:32:39;98448.09;;;8.58;100.00
29315;BME280;16320;53.954;9.506;2023-03-14T04:35:45;98445.84;;;8.53;100.00
29315;BME280;16320;53.954;9.506;2023-03-14T04:38:49;98438.72;;;8.44;100.00
29315;BME280;16320;53.954;9.506;2023-03-14T04:41:53;98433.50;;;8.44;100.00
29315;BME280;16320;53.954;9.506;2023-03-14T04:44:58;98427.78;;;8.39;100.00
29315;BME280;16320;53.954;9.506;2023-03-14T04:48:02;98426.34;;;8.35;100.00
29315;BME280;16320;53.954;9.506;2023-03-14T04:51:07;98419.47;;;8.34;100.00
29315;BME280;16320;53.954;9.506;2023-03-14T04:54:11;98410.88;;;8.32;100.00
29315;BME280;16320;53.954;9.506;2023-03-14T04:57:15;98414.72;;;8.28;100.00
29315;BME280;16320;53.954;9.506;2023-03-14T05:00:20;98414.94;;;8.24;100.00
29315;BME280;16320;53.954;9.506;2023-03-14T05:03:24;98414.13;;;8.24;100.00
29315;BME280;16320;53.954;9.506;2023-03-14T05:06:29;98407.31;;;8.33;100.00
29315;BME280;16320;53.954;9.506;2023-03-14T05:09:33;98404.94;;;8.30;100.00
29315;BME280;16320;53.954;9.506;2023-03-14T05:12:38;98412.22;;;8.26;100.00
29315;BME280;16320;53.954;9.506;2023-03-14T05:15:42;98406.16;;;8.25;100.00
29315;BME280;16320;53.954;9.506;2023-03-14T05:18:46;98405.31;;;8.25;100.00
29315;BME280;16320;53.954;9.506;2023-03-14T05:21:51;98409.84;;;8.23;100.00
29315;BME280;16320;53.954;9.506;2023-03-14T05:24:55;98406.88;;;8.28;100.00
29315;BME280;16320;53.954;9.506;2023-03-14T05:28:02;98398.78;;;8.31;100.00
29315;BME280;16320;53.954;9.506;2023-03-14T05:31:08;98406.63;;;8.31;100.00
29315;BME280;16320;53.954;9.506;2023-03-14T05:34:12;98402.09;;;8.33;100.00
29315;BME280;16320;53.954;9.506;2023-03-14T05:37:17;98400.31;;;8.33;100.00
29315;BME280;16320;53.954;9.506;2023-03-14T05:40:23;98406.03;;;8.38;100.00
29315;BME280;16320;53.954;9.506;2023-03-14T05:43:27;98409.22;;;8.42;100.00
29315;BME280;16320;53.954;9.506;2023-03-14T05:46:32;98403.28;;;8.40;100.00
29315;BME280;16320;53.954;9.506;2023-03-14T05:49:36;98397.19;;;8.39;100.00
29315;BME280;16320;53.954;9.506;2023-03-14T05:52:40;98399.50;;;8.44;100.00
29315;BME280;16320;53.954;9.506;2023-03-14T05:55:44;98394.34;;;8.42;100.00
29315;BME280;16320;53.954;9.506;2023-03-14T05:58:48;98394.00;;;8.47;100.00
29315;BME280;16320;53.954;9.506;2023-03-14T06:01:52;98394.25;;;8.44;100.00
29315;BME280;16320;53.954;9.506;2023-03-14T06:04:57;98399.13;;;8.49;100.00
29315;BME280;16320;53.954;9.506;2023-03-14T06:08:02;98394.97;;;8.46;100.00
29315;BME280;16320;53.954;9.506;2023-03-14T06:11:06;98390.47;;;8.48;100.00
29315;BME280;16320;53.954;9.506;2023-03-14T06:14:10;98394.34;;;8.54;100.00
29315;BME280;16320;53.954;9.506;2023-03-14T06:17:16;98395.16;;;8.54;100.00
29315;BME280;16320;53.954;9.506;2023-03-14T06:20:21;98386.25;;;8.57;100.00
29315;BME280;16320;53.954;9.506;2023-03-14T06:23:26;98381.16;;;8.55;100.00
29315;BME280;16320;53.954;9.506;2023-03-14T06:26:31;98379.47;;;8.54;100.00
29315;BME280;16320;53.954;9.506;2023-03-14T06:29:36;98378.28;;;8.58;100.00
29315;BME280;16320;53.954;9.506;2023-03-14T06:32:41;98375.91;;;8.55;100.00
29315;BME280;16320;53.954;9.506;2023-03-14T06:35:45;98381.59;;;8.60;100.00
29315;BME280;16320;53.954;9.506;2023-03-14T06:38:50;98398.50;;;8.56;100.00
29315;BME280;16320;53.954;9.506;2023-03-14T06:41:54;98397.41;;;8.59;100.00
29315;BME280;16320;53.954;9.506;2023-03-14T06:44:59;98393.38;;;8.66;100.00
29315;BME280;16320;53.954;9.506;2023-03-14T06:48:04;98393.94;;;8.70;100.00
29315;BME280;16320;53.954;9.506;2023-03-14T06:51:09;98395.94;;;8.77;100.00
29315;BME280;16320;53.954;9.506;2023-03-14T06:54:13;98392.59;;;8.75;100.00
29315;BME280;16320;53.954;9.506;2023-03-14T06:57:18;98383.44;;;8.81;100.00
29315;BME280;16320;53.954;9.506;2023-03-14T07:00:22;98382.22;;;8.85;100.00
29315;BME280;16320;53.954;9.506;2023-03-14T07:03:27;98378.78;;;8.85;100.00
29315;BME280;16320;53.954;9.506;2023-03-14T07:06:33;98375.22;;;8.86;100.00
29315;BME280;16320;53.954;9.506;2023-03-14T07:09:37;98367.22;;;8.87;100.00
29315;BME280;16320;53.954;9.506;2023-03-14T07:12:41;98359.63;;;8.84;100.00
29315;BME280;16320;53.954;9.506;2023-03-14T07:15:46;98361.75;;;8.90;100.00
29315;BME280;16320;53.954;9.506;2023-03-14T07:18:51;98362.44;;;8.92;100.00
29315;BME280;16320;53.954;9.506;2023-03-14T07:21:56;98359.25;;;8.89;100.00
29315;BME280;16320;53.954;9.506;2023-03-14T07:25:01;98363.88;;;8.85;100.00
29315;BME280;16320;53.954;9.506;2023-03-14T07:28:05;98359.06;;;8.81;100.00
29315;BME280;16320;53.954;9.506;2023-03-14T07:31:10;98355.16;;;8.75;100.00
29315;BME280;16320;53.954;9.506;2023-03-14T07:34:14;98356.28;;;8.82;100.00
29315;BME280;16320;53.954;9.506;2023-03-14T07:37:18;98365.59;;;8.75;100.00
29315;BME280;16320;53.954;9.506;2023-03-14T07:40:23;98371.66;;;8.75;100.00
29315;BME280;16320;53.954;9.506;2023-03-14T07:43:27;98376.19;;;8.73;100.00
29315;BME280;16320;53.954;9.506;2023-03-14T07:46:32;98380.25;;;8.77;100.00
29315;BME280;16320;53.954;9.506;2023-03-14T07:49:37;98368.81;;;8.78;100.00
29315;BME280;16320;53.954;9.506;2023-03-14T07:52:41;98381.31;;;8.75;100.00
29315;BME280;16320;53.954;9.506;2023-03-14T07:55:46;98388.91;;;8.78;100.00
29315;BME280;16320;53.954;9.506;2023-03-14T07:58:51;98380.81;;;8.81;100.00
29315;BME280;16320;53.954;9.506;2023-03-14T08:01:55;98382.13;;;8.75;100.00
29315;BME280;16320;53.954;9.506;2023-03-14T08:04:59;98395.94;;;8.77;100.00
29315;BME280;16320;53.954;9.506;2023-03-14T08:08:05;98376.09;;;8.75;100.00
29315;BME280;16320;53.954;9.506;2023-03-14T08:11:09;98392.84;;;8.72;100.00
29315;BME280;16320;53.954;9.506;2023-03-14T08:14:14;98390.75;;;8.66;100.00
29315;BME280;16320;53.954;9.506;2023-03-14T08:17:18;98389.91;;;8.66;100.00
29315;BME280;16320;53.954;9.506;2023-03-14T08:20:28;98394.19;;;8.67;100.00
29315;BME280;16320;53.954;9.506;2023-03-14T08:23:32;98407.72;;;8.72;100.00
29315;BME280;16320;53.954;9.506;2023-03-14T08:26:37;98402.75;;;8.69;100.00
29315;BME280;16320;53.954;9.506;2023-03-14T08:29:42;98416.78;;;8.68;100.00
29315;BME280;16320;53.954;9.506;2023-03-14T08:32:46;98421.75;;;8.71;100.00
29315;BME280;16320;53.954;9.506;2023-03-14T08:35:53;98426.16;;;8.70;100.00
29315;BME280;16320;53.954;9.506;2023-03-14T08:38:57;98426.03;;;8.72;100.00
29315;BME280;16320;53.954;9.506;2023-03-14T08:42:02;98439.13;;;8.72;100.00
29315;BME280;16320;53.954;9.506;2023-03-14T08:45:08;98437.22;;;8.74;100.00
29315;BME280;16320;53.954;9.506;2023-03-14T08:48:13;98504.56;;;8.60;100.00
29315;BME280;16320;53.954;9.506;2023-03-14T08:51:17;98505.75;;;8.22;100.00
29315;BME280;16320;53.954;9.506;2023-03-14T08:54:22;98533.31;;;8.04;100.00
29315;BME280;16320;53.954;9.506;2023-03-14T08:57:27;98545.47;;;7.69;100.00
29315;BME280;16320;53.954;9.506;2023-03-14T09:00:31;98566.34;;;7.34;100.00
29315;BME280;16320;53.954;9.506;2023-03-14T09:03:37;98572.34;;;6.99;100.00
29315;BME280;16320;53.954;9.506;2023-03-14T09:06:41;98581.16;;;6.85;100.00
29315;BME280;16320;53.954;9.506;2023-03-14T09:09:46;98581.16;;;6.72;100.00
29315;BME280;16320;53.954;9.506;2023-03-14T09:12:50;98584.56;;;6.49;100.00
29315;BME280;16320;53.954;9.506;2023-03-14T09:15:56;98577.78;;;6.08;100.00
29315;BME280;16320;53.954;9.506;2023-03-14T09:19:00;98583.03;;;5.80;100.00
29315;BME280;16320;53.954;9.506;2023-03-14T09:22:05;98595.75;;;5.72;100.00
29315;BME280;16320;53.954;9.506;2023-03-14T09:25:10;98597.78;;;5.54;100.00
29315;BME280;16320;53.954;9.506;2023-03-14T09:28:14;98613.59;;;5.51;100.00
29315;BME280;16320;53.954;9.506;2023-03-14T09:31:19;98627.09;;;5.43;100.00
29315;BME280;16320;53.954;9.506;2023-03-14T09:34:23;98641.13;;;5.41;100.00
29315;BME280;16320;53.954;9.506;2023-03-14T09:37:28;98639.31;;;5.28;100.00
29315;BME280;16320;53.954;9.506;2023-03-14T09:40:35;98646.03;;;5.18;100.00
29315;BME280;16320;53.954;9.506;2023-03-14T09:43:42;98641.78;;;5.03;100.00
29315;BME280;16320;53.954;9.506;2023-03-14T09:46:53;98654.97;;;5.00;100.00
29315;BME280;16320;53.954;9.506;2023-03-14T09:50:00;98668.09;;;4.98;100.00
29315;BME280;16320;53.954;9.506;2023-03-14T09:53:16;98685.09;;;5.04;100.00
29315;BME280;16320;53.954;9.506;2023-03-14T09:56:29;98696.25;;;5.06;100.00
29315;BME280;16320;53.954;9.506;2023-03-14T09:59:35;98708.59;;;4.88;100.00
29315;BME280;16320;53.954;9.506;2023-03-14T10:02:47;98725.41;;;4.97;100.00
29315;BME280;16320;53.954;9.506;2023-03-14T10:05:55;98721.88;;;4.98;100.00
29315;BME280;16320;53.954;9.506;2023-03-14T10:09:01;98746.97;;;4.99;100.00
29315;BME280;16320;53.954;9.506;2023-03-14T10:12:08;98754.78;;;4.84;100.00
29315;BME280;16320;53.954;9.506;2023-03-14T10:15:16;98766.44;;;4.63;100.00
29315;BME280;16320;53.954;9.506;2023-03-14T10:18:31;98778.72;;;4.75;100.00
29315;BME280;16320;53.954;9.506;2023-03-14T10:21:42;98783.78;;;4.92;100.00
29315;BME280;16320;53.954;9.506;2023-03-14T10:24:53;98805.53;;;5.06;100.00
29315;BME280;16320;53.954;9.506;2023-03-14T10:28:00;98820.38;;;5.18;100.00
29315;BME280;16320;53.954;9.506;2023-03-14T10:31:05;98811.47;;;5.08;100.00
29315;BME280;16320;53.954;9.506;2023-03-14T10:34:17;98824.66;;;5.05;100.00
29315;BME280;16320;53.954;9.506;2023-03-14T10:37:26;98831.47;;;4.77;100.00
29315;BME280;16320;53.954;9.506;2023-03-14T10:40:40;98833.00;;;4.81;100.00
29315;BME280;16320;53.954;9.506;2023-03-14T10:43:50;98844.34;;;4.94;100.00
29315;BME280;16320;53.954;9.506;2023-03-14T10:47:02;98855.31;;;5.00;100.00
29315;BME280;16320;53.954;9.506;2023-03-14T10:50:30;98848.06;;;5.05;100.00
29315;BME280;16320;53.954;9.506;2023-03-14T10:53:50;98860.38;;;5.31;100.00
29315;BME280;16320;53.954;9.506;2023-03-14T10:57:00;98881.22;;;5.46;100.00
29315;BME280;16320;53.954;9.506;2023-03-14T11:00:14;98873.88;;;5.53;100.00
29315;BME280;16320;53.954;9.506;2023-03-14T11:03:21;98874.88;;;5.50;100.00
29315;BME280;16320;53.954;9.506;2023-03-14T11:06:44;98892.22;;;5.65;100.00
29315;BME280;16320;53.954;9.506;2023-03-14T11:10:18;98898.34;;;5.79;100.00
29315;BME280;16320;53.954;9.506;2023-03-14T11:13:48;98905.38;;;5.91;100.00
29315;BME280;16320;53.954;9.506;2023-03-14T11:33:55;98941.72;;;5.35;100.00
29315;BME280;16320;53.954;9.506;2023-03-14T11:40:23;98962.44;;;5.22;100.00
29315;BME280;16320;53.954;9.506;2023-03-14T11:43:37;98962.44;;;5.22;100.00
29315;BME280;16320;53.954;9.506;2023-03-14T11:50:28;98978.59;;;5.58;100.00
29315;BME280;16320;53.954;9.506;2023-03-14T11:53:41;98980.34;;;5.57;100.00
29315;BME280;16320;53.954;9.506;2023-03-14T11:57:11;98985.16;;;5.49;100.00
29315;BME280;16320;53.954;9.506;2023-03-14T12:00:21;98984.44;;;5.47;100.00
29315;BME280;16320;53.954;9.506;2023-03-14T12:03:45;98983.03;;;5.41;100.00
29315;BME280;16320;53.954;9.506;2023-03-14T12:06:56;98979.97;;;5.49;100.00
29315;BME280;16320;53.954;9.506;2023-03-14T12:10:03;98995.41;;;5.52;100.00
29315;BME280;16320;53.954;9.506;2023-03-14T12:13:12;98988.75;;;5.62;100.00
29315;BME280;16320;53.954;9.506;2023-03-14T12:19:31;98983.34;;;5.80;100.00
29315;BME280;16320;53.954;9.506;2023-03-14T12:25:47;98961.31;;;5.85;100.00
29315;BME280;16320;53.954;9.506;2023-03-14T12:32:24;98971.25;;;5.64;100.00
29315;BME280;16320;53.954;9.506;2023-03-14T12:39:31;98997.22;;;5.66;100.00
29315;BME280;16320;53.954;9.506;2023-03-14T12:49:17;99003.31;;;5.50;100.00
29315;BME280;16320;53.954;9.506;2023-03-14T12:59:58;99032.25;;;5.60;100.00
29315;BME280;16320;53.954;9.506;2023-03-14T13:03:17;99032.41;;;5.87;100.00
29315;BME280;16320;53.954;9.506;2023-03-14T13:06:50;99048.97;;;5.72;100.00
29315;BME280;16320;53.954;9.506;2023-03-14T13:13:24;99052.44;;;5.87;100.00
29315;BME280;16320;53.954;9.506;2023-03-14T13:16:36;99055.38;;;5.81;100.00
29315;BME280;16320;53.954;9.506;2023-03-14T13:19:40;99070.63;;;5.73;100.00
29315;BME280;16320;53.954;9.506;2023-03-14T13:22:49;99085.25;;;6.20;100.00
29315;BME280;16320;53.954;9.506;2023-03-14T13:25:54;99091.59;;;6.59;100.00
29315;BME280;16320;53.954;9.506;2023-03-14T13:28:58;99092.63;;;6.56;100.00
29315;BME280;16320;53.954;9.506;2023-03-14T13:32:21;99117.38;;;6.20;100.00
29315;BME280;16320;53.954;9.506;2023-03-14T13:35:29;99133.59;;;5.95;100.00
29315;BME280;16320;53.954;9.506;2023-03-14T13:38:36;99130.84;;;5.82;100.00
29315;BME280;16320;53.954;9.506;2023-03-14T13:41:42;99143.06;;;5.66;100.00
29315;BME280;16320;53.954;9.506;2023-03-14T13:44:47;99149.63;;;5.57;100.00
29315;BME280;16320;53.954;9.506;2023-03-14T13:47:52;99153.50;;;5.50;100.00
29315;BME280;16320;53.954;9.506;2023-03-14T13:51:04;99175.19;;;5.35;100.00
29315;BME280;16320;53.954;9.506;2023-03-14T13:54:16;99186.44;;;5.51;100.00
29315;BME280;16320;53.954;9.506;2023-03-14T13:57:21;99180.75;;;6.07;100.00
29315;BME280;16320;53.954;9.506;2023-03-14T14:00:27;99197.06;;;6.69;100.00
29315;BME280;16320;53.954;9.506;2023-03-14T14:03:36;99193.72;;;6.67;100.00
29315;BME280;16320;53.954;9.506;2023-03-14T14:09:59;99217.19;;;6.67;100.00
29315;BME280;16320;53.954;9.506;2023-03-14T14:13:10;99220.47;;;6.85;100.00
29315;BME280;16320;53.954;9.506;2023-03-14T14:16:20;99223.06;;;6.85;100.00
29315;BME280;16320;53.954;9.506;2023-03-14T14:19:30;99226.53;;;6.71;100.00
29315;BME280;16320;53.954;9.506;2023-03-14T14:22:37;99242.59;;;6.49;100.00
29315;BME280;16320;53.954;9.506;2023-03-14T14:25:48;99256.19;;;6.54;100.00
29315;BME280;16320;53.954;9.506;2023-03-14T14:29:06;99249.63;;;6.33;100.00
29315;BME280;16320;53.954;9.506;2023-03-14T14:32:15;99272.84;;;6.37;100.00
29315;BME280;16320;53.954;9.506;2023-03-14T14:35:32;99287.75;;;6.19;100.00
29315;BME280;16320;53.954;9.506;2023-03-14T14:38:37;99294.84;;;6.01;100.00
29315;BME280;16320;53.954;9.506;2023-03-14T14:41:42;99309.91;;;5.96;100.00
29315;BME280;16320;53.954;9.506;2023-03-14T14:44:48;99319.78;;;5.74;100.00
29315;BME280;16320;53.954;9.506;2023-03-14T14:51:06;99340.84;;;5.53;100.00
29315;BME280;16320;53.954;9.506;2023-03-14T14:54:17;99350.44;;;5.53;100.00
29315;BME280;16320;53.954;9.506;2023-03-14T14:57:28;99348.78;;;5.67;100.00
29315;BME280;16320;53.954;9.506;2023-03-14T15:00:39;99355.47;;;5.72;100.00
29315;BME280;16320;53.954;9.506;2023-03-14T15:03:49;99362.91;;;5.79;100.00
29315;BME280;16320;53.954;9.506;2023-03-14T15:06:54;99357.81;;;5.60;100.00
29315;BME280;16320;53.954;9.506;2023-03-14T15:09:59;99375.78;;;5.49;100.00
29315;BME280;16320;53.954;9.506;2023-03-14T15:13:04;99362.88;;;5.63;100.00
29315;BME280;16320;53.954;9.506;2023-03-14T15:16:12;99367.41;;;5.60;100.00
29315;BME280;16320;53.954;9.506;2023-03-14T15:19:25;99378.19;;;5.69;100.00
29315;BME280;16320;53.954;9.506;2023-03-14T15:22:30;99383.06;;;5.76;100.00
29315;BME280;16320;53.954;9.506;2023-03-14T15:25:35;99400.28;;;5.62;100.00
29315;BME280;16320;53.954;9.506;2023-03-14T15:28:58;99407.88;;;5.49;100.00
29315;BME280;16320;53.954;9.506;2023-03-14T15:32:03;99411.50;;;5.29;100.00
29315;BME280;16320;53.954;9.506;2023-03-14T15:35:08;99412.81;;;5.21;100.00
29315;BME280;16320;53.954;9.506;2023-03-14T15:38:17;99429.41;;;5.36;100.00
29315;BME280;16320;53.954;9.506;2023-03-14T15:41:27;99433.72;;;5.37;100.00
29315;BME280;16320;53.954;9.506;2023-03-14T15:44:32;99436.09;;;5.57;100.00
29315;BME280;16320;53.954;9.506;2023-03-14T15:47:36;99445.75;;;5.73;100.00
29315;BME280;16320;53.954;9.506;2023-03-14T15:50:40;99455.44;;;5.53;100.00
29315;BME280;16320;53.954;9.506;2023-03-14T15:53:45;99459.06;;;5.33;100.00
29315;BME280;16320;53.954;9.506;2023-03-14T15:56:50;99461.25;;;5.41;100.00
29315;BME280;16320;53.954;9.506;2023-03-14T15:59:56;99477.91;;;5.72;100.00
29315;BME280;16320;53.954;9.506;2023-03-14T16:03:01;99476.50;;;5.66;100.00
29315;BME280;16320;53.954;9.506;2023-03-14T16:06:05;99480.56;;;5.37;100.00
29315;BME280;16320;53.954;9.506;2023-03-14T16:09:11;99486.84;;;5.15;100.00
29315;BME280;16320;53.954;9.506;2023-03-14T16:12:16;99508.06;;;4.88;100.00
29315;BME280;16320;53.954;9.506;2023-03-14T16:15:30;99520.31;;;4.86;100.00
29315;BME280;16320;53.954;9.506;2023-03-14T16:18:37;99533.19;;;4.89;100.00
29315;BME280;16320;53.954;9.506;2023-03-14T16:21:43;99553.38;;;4.84;100.00
29315;BME280;16320;53.954;9.506;2023-03-14T16:24:47;99556.25;;;4.78;100.00
29315;BME280;16320;53.954;9.506;2023-03-14T16:27:51;99555.75;;;4.70;100.00
29315;BME280;16320;53.954;9.506;2023-03-14T16:31:17;99578.75;;;4.60;100.00
29315;BME280;16320;53.954;9.506;2023-03-14T16:34:24;99583.22;;;4.56;100.00
29315;BME280;16320;53.954;9.506;2023-03-14T16:37:29;99589.63;;;4.49;100.00
29315;BME280;16320;53.954;9.506;2023-03-14T16:40:34;99595.47;;;4.54;100.00
29315;BME280;16320;53.954;9.506;2023-03-14T16:43:38;99621.53;;;4.53;100.00
29315;BME280;16320;53.954;9.506;2023-03-14T16:46:43;99632.81;;;4.33;100.00
29315;BME280;16320;53.954;9.506;2023-03-14T16:49:48;99658.72;;;4.14;100.00
29315;BME280;16320;53.954;9.506;2023-03-14T16:52:53;99665.28;;;4.02;100.00
29315;BME280;16320;53.954;9.506;2023-03-14T16:55:58;99702.44;;;4.04;100.00
29315;BME280;16320;53.954;9.506;2023-03-14T16:59:04;99719.25;;;3.73;100.00
29315;BME280;16320;53.954;9.506;2023-03-14T17:02:09;99713.81;;;3.35;100.00
29315;BME280;16320;53.954;9.506;2023-03-14T17:05:14;99722.53;;;3.10;100.00
29315;BME280;16320;53.954;9.506;2023-03-14T17:08:26;99738.25;;;3.06;100.00
29315;BME280;16320;53.954;9.506;2023-03-14T17:11:32;99745.19;;;3.05;100.00
29315;BME280;16320;53.954;9.506;2023-03-14T17:14:40;99753.78;;;3.07;100.00
29315;BME280;16320;53.954;9.506;2023-03-14T17:17:45;99770.91;;;3.11;100.00
29315;BME280;16320;53.954;9.506;2023-03-14T17:20:54;99774.94;;;3.20;100.00
29315;BME280;16320;53.954;9.506;2023-03-14T17:24:00;99782.66;;;3.22;100.00
29315;BME280;16320;53.954;9.506;2023-03-14T17:27:05;99788.59;;;3.25;100.00
29315;BME280;16320;53.954;9.506;2023-03-14T17:30:11;99782.53;;;3.25;100.00
29315;BME280;16320;53.954;9.506;2023-03-14T17:33:15;99790.19;;;3.28;100.00
29315;BME280;16320;53.954;9.506;2023-03-14T17:36:21;99794.56;;;3.27;100.00
29315;BME280;16320;53.954;9.506;2023-03-14T17:39:28;99805.66;;;3.31;100.00
29315;BME280;16320;53.954;9.506;2023-03-14T17:42:32;99806.47;;;3.33;100.00
29315;BME280;16320;53.954;9.506;2023-03-14T17:45:37;99815.94;;;3.34;100.00
29315;BME280;16320;53.954;9.506;2023-03-14T17:48:44;99820.28;;;3.34;100.00
29315;BME280;16320;53.954;9.506;2023-03-14T17:51:48;99824.72;;;3.32;100.00
29315;BME280;16320;53.954;9.506;2023-03-14T17:54:53;99831.63;;;3.31;100.00
29315;BME280;16320;53.954;9.506;2023-03-14T17:57:57;99841.06;;;3.34;100.00
29315;BME280;16320;53.954;9.506;2023-03-14T18:01:18;99841.13;;;3.32;100.00
29315;BME280;16320;53.954;9.506;2023-03-14T18:04:24;99852.44;;;3.29;100.00
29315;BME280;16320;53.954;9.506;2023-03-14T18:07:31;99862.72;;;3.33;100.00
29315;BME280;16320;53.954;9.506;2023-03-14T18:10:36;99856.00;;;3.27;100.00
29315;BME280;16320;53.954;9.506;2023-03-14T18:13:41;99862.88;;;3.28;100.00
29315;BME280;16320;53.954;9.506;2023-03-14T18:16:46;99879.25;;;3.30;100.00
29315;BME280;16320;53.954;9.506;2023-03-14T18:19:52;99898.09;;;3.35;100.00
29315;BME280;16320;53.954;9.506;2023-03-14T18:22:59;99910.16;;;3.36;100.00
29315;BME280;16320;53.954;9.506;2023-03-14T18:26:05;99909.97;;;3.42;100.00
29315;BME280;16320;53.954;9.506;2023-03-14T18:29:11;99920.44;;;3.39;100.00
29315;BME280;16320;53.954;9.506;2023-03-14T18:32:17;99925.75;;;3.36;100.00
29315;BME280;16320;53.954;9.506;2023-03-14T18:35:22;99923.38;;;3.30;100.00
29315;BME280;16320;53.954;9.506;2023-03-14T18:38:27;99926.19;;;3.24;100.00
29315;BME280;16320;53.954;9.506;2023-03-14T18:41:34;99932.50;;;3.15;100.00
29315;BME280;16320;53.954;9.506;2023-03-14T18:44:38;99937.22;;;3.04;100.00
29315;BME280;16320;53.954;9.506;2023-03-14T18:47:45;99945.19;;;2.99;100.00
29315;BME280;16320;53.954;9.506;2023-03-14T18:50:50;99952.84;;;3.02;100.00
29315;BME280;16320;53.954;9.506;2023-03-14T18:53:55;99947.44;;;3.08;100.00
29315;BME280;16320;53.954;9.506;2023-03-14T18:57:13;99950.09;;;3.07;100.00
29315;BME280;16320;53.954;9.506;2023-03-14T19:00:21;99960.84;;;2.96;100.00
29315;BME280;16320;53.954;9.506;2023-03-14T19:03:26;99963.53;;;2.93;100.00
29315;BME280;16320;53.954;9.506;2023-03-14T19:06:30;99971.44;;;2.88;100.00
29315;BME280;16320;53.954;9.506;2023-03-14T19:09:36;99982.88;;;2.83;100.00
29315;BME280;16320;53.954;9.506;2023-03-14T19:12:41;99999.47;;;2.77;100.00
29315;BME280;16320;53.954;9.506;2023-03-14T19:15:46;99995.34;;;2.71;100.00
29315;BME280;16320;53.954;9.506;2023-03-14T19:18:51;100014.50;;;2.66;100.00
29315;BME280;16320;53.954;9.506;2023-03-14T19:21:55;100022.28;;;2.66;100.00